createdAt,value
2024-04-22T00:01:24.141Z,65.54
2024-04-22T00:04:18.087Z,65.70
2024-04-22T00:07:06.617Z,65.37
2024-04-22T00:09:58.331Z,65.30
2024-04-22T00:12:49.524Z,65.98
2024-04-22T00:15:37.948Z,67.05
2024-04-22T00:18:29.448Z,67.71
2024-04-22T00:21:20.667Z,67.76
2024-04-22T00:24:12.142Z,67.68
2024-04-22T00:27:00.618Z,67.75
2024-04-22T00:29:51.710Z,68.20
2024-04-22T00:32:40.518Z,68.53
2024-04-22T00:35:31.740Z,69.06
2024-04-22T00:38:22.907Z,69.66
2024-04-22T00:41:14.352Z,69.85
2024-04-22T00:44:02.797Z,69.80
2024-04-22T00:46:54.388Z,70.03
2024-04-22T00:49:43.002Z,70.25
2024-04-22T00:52:35.410Z,70.18
2024-04-22T00:55:31.102Z,71.06
2024-04-22T00:58:20.452Z,70.97
2024-04-22T01:01:13.861Z,71.14
2024-04-22T01:04:03.433Z,71.09
2024-04-22T01:06:54.687Z,71.46
2024-04-22T01:09:43.411Z,71.34
2024-04-22T01:12:37.187Z,72.01
2024-04-22T01:15:25.697Z,71.92
2024-04-22T01:18:21.257Z,71.78
2024-04-22T01:21:09.938Z,71.65
2024-04-22T01:24:05.235Z,70.97
2024-04-22T01:26:57.601Z,70.72
2024-04-22T01:29:48.676Z,71.15
2024-04-22T01:32:37.230Z,71.32
2024-04-22T01:35:28.662Z,71.21
2024-04-22T01:38:17.108Z,70.77
2024-04-22T01:41:11.048Z,70.61
2024-04-22T01:43:59.541Z,70.30
2024-04-22T01:46:50.807Z,70.31
2024-04-22T01:49:39.554Z,70.66
2024-04-22T01:52:30.761Z,71.79
2024-04-22T01:55:19.260Z,72.40
2024-04-22T01:58:15.556Z,72.81
2024-04-22T02:01:12.564Z,73.91
2024-04-22T02:04:01.210Z,73.97
2024-04-22T02:06:52.589Z,74.16
2024-04-22T02:09:41.440Z,74.63
2024-04-22T02:12:32.564Z,74.98
2024-04-22T02:15:23.828Z,75.36
2024-04-22T02:18:14.901Z,75.55
2024-04-22T02:21:03.438Z,75.38
2024-04-22T02:23:54.850Z,75.33
2024-04-22T02:26:43.281Z,75.28
2024-04-22T02:29:34.647Z,75.27
2024-04-22T02:32:25.868Z,75.21
2024-04-22T02:35:17.213Z,75.31
2024-04-22T02:38:05.952Z,75.85
2024-04-22T02:40:57.919Z,75.15
2024-04-22T02:43:48.484Z,75.08
2024-04-22T02:46:39.699Z,75.59
2024-04-22T02:49:33.108Z,75.30
2024-04-22T02:52:24.312Z,75.76
2024-04-22T02:55:12.825Z,75.92
2024-04-22T02:58:04.479Z,76.06
2024-04-22T03:00:55.848Z,76.09
2024-04-22T03:03:47.280Z,76.68
2024-04-22T03:06:38.443Z,77.11
2024-04-22T03:09:34.083Z,76.96
2024-04-22T03:12:22.918Z,77.14
2024-04-22T03:15:14.060Z,77.46
2024-04-22T03:18:02.576Z,77.46
2024-04-22T03:20:53.748Z,77.60
2024-04-22T03:23:44.887Z,77.87
2024-04-22T03:26:36.007Z,77.19
2024-04-22T03:29:24.553Z,77.20
2024-04-22T03:32:15.805Z,77.20
2024-04-22T03:35:04.697Z,77.15
2024-04-22T03:37:55.798Z,77.34
2024-04-22T03:40:49.574Z,77.50
2024-04-22T03:43:40.816Z,77.69
2024-04-22T03:46:48.167Z,78.50
2024-04-22T03:49:59.398Z,78.80
2024-04-22T03:52:51.303Z,80.01
2024-04-22T03:55:43.600Z,79.65
2024-04-22T03:58:37.481Z,79.83
2024-04-22T04:01:29.081Z,80.31
2024-04-22T04:04:17.912Z,80.52
2024-04-22T04:07:09.394Z,80.65
2024-04-22T04:09:57.816Z,80.48
2024-04-22T04:12:49.103Z,79.95
2024-04-22T04:15:40.413Z,81.26
2024-04-22T04:18:31.607Z,81.15
2024-04-22T04:21:20.096Z,81.49
2024-04-22T04:24:11.928Z,82.70
2024-04-22T04:27:00.449Z,82.18
2024-04-22T04:29:51.554Z,83.10
2024-04-22T04:32:45.375Z,84.07
2024-04-22T04:35:33.897Z,83.46
2024-04-22T04:38:25.097Z,84.42
2024-04-22T04:41:13.555Z,85.82
2024-04-22T04:44:05.049Z,85.42
2024-04-22T04:46:53.554Z,85.65
2024-04-22T04:49:47.369Z,84.19
2024-04-22T04:52:35.987Z,85.12
2024-04-22T04:55:27.239Z,87.55
2024-04-22T04:58:16.353Z,88.71
2024-04-22T05:01:08.273Z,88.97
2024-04-22T05:03:59.155Z,89.21
2024-04-22T05:06:53.257Z,88.36
2024-04-22T05:09:41.741Z,88.78
2024-04-22T05:12:33.207Z,88.37
2024-04-22T05:15:21.942Z,88.47
2024-04-22T05:18:13.323Z,87.55
2024-04-22T05:21:01.859Z,88.43
2024-04-22T05:23:56.905Z,88.73
2024-04-22T05:26:45.441Z,89.15
2024-04-22T05:29:36.845Z,89.27
2024-04-22T05:32:25.425Z,89.60
2024-04-22T05:35:32.721Z,88.13
2024-04-22T05:38:24.018Z,89.77
2024-04-22T05:41:17.902Z,89.41
2024-04-22T05:44:09.199Z,89.40
2024-04-22T05:47:00.385Z,89.41
2024-04-22T05:49:51.648Z,89.35
2024-04-22T05:52:42.806Z,88.92
2024-04-22T05:55:34.045Z,89.13
2024-04-22T05:58:25.253Z,89.90
2024-04-22T06:01:16.532Z,89.59
2024-04-22T06:04:05.937Z,89.19
2024-04-22T06:06:57.130Z,90.37
2024-04-22T06:09:45.573Z,90.53
2024-04-22T06:12:36.741Z,91.68
2024-04-22T06:15:28.095Z,91.11
2024-04-22T06:18:20.207Z,90.49
2024-04-22T06:21:08.672Z,90.52
2024-04-22T06:23:59.831Z,90.90
2024-04-22T06:26:48.303Z,90.58
2024-04-22T06:29:39.432Z,89.44
2024-04-22T06:32:36.423Z,89.34
2024-04-22T06:35:28.394Z,88.89
2024-04-22T06:38:17.103Z,89.24
2024-04-22T06:41:08.795Z,88.92
2024-04-22T06:43:59.894Z,88.43
2024-04-22T06:46:51.043Z,88.44
2024-04-22T06:49:42.644Z,88.08
2024-04-22T06:52:33.918Z,88.18
2024-04-22T06:55:25.443Z,88.10
2024-04-22T06:58:17.200Z,88.09
2024-04-22T07:01:05.890Z,88.09
2024-04-22T07:03:57.147Z,88.32
2024-04-22T07:06:50.863Z,87.82
2024-04-22T07:09:42.025Z,88.19
2024-04-22T07:12:30.447Z,87.71
2024-04-22T07:15:22.250Z,87.67
2024-04-22T07:18:10.933Z,88.00
2024-04-22T07:21:02.096Z,88.04
2024-04-22T07:23:53.184Z,86.91
2024-04-22T07:26:45.035Z,87.68
2024-04-22T07:29:34.475Z,87.19
2024-04-22T07:32:26.482Z,88.34
2024-04-22T07:35:16.633Z,87.24
2024-04-22T07:38:12.879Z,88.64
2024-04-22T07:41:07.847Z,84.01
2024-04-22T07:43:56.522Z,85.52
2024-04-22T07:46:47.633Z,88.02
2024-04-22T07:49:36.143Z,85.03
2024-04-22T07:52:28.248Z,85.38
2024-04-22T07:55:17.674Z,84.26
2024-04-22T07:58:13.061Z,78.41
2024-04-22T08:01:03.523Z,76.62
2024-04-22T08:03:55.470Z,76.08
2024-04-22T08:06:48.297Z,74.67
2024-04-22T08:09:39.723Z,77.22
2024-04-22T08:12:31.263Z,75.98
2024-04-22T08:15:22.520Z,71.88
2024-04-22T08:18:16.046Z,71.03
2024-04-22T08:21:06.860Z,69.99
2024-04-22T08:23:58.024Z,69.47
2024-04-22T08:26:46.562Z,70.16
2024-04-22T08:29:37.952Z,69.32
2024-04-22T08:32:29.402Z,69.37
2024-04-22T08:35:20.676Z,67.16
2024-04-22T08:38:09.177Z,67.18
2024-04-22T08:41:00.639Z,65.43
2024-04-22T08:43:50.629Z,66.14
2024-04-22T08:46:41.880Z,65.57
2024-04-22T08:49:33.082Z,63.02
2024-04-22T08:52:25.346Z,64.37
2024-04-22T08:55:14.189Z,66.10
2024-04-22T08:58:05.279Z,68.03
2024-04-22T09:00:53.904Z,68.72
2024-04-22T09:03:45.181Z,69.56
2024-04-22T09:06:36.385Z,70.08
2024-04-22T09:09:40.424Z,69.23
2024-04-22T09:12:38.934Z,69.80
2024-04-22T09:15:28.218Z,71.02
2024-04-22T09:18:20.845Z,69.95
2024-04-22T09:21:11.543Z,71.62
2024-04-22T09:24:05.274Z,71.85
2024-04-22T09:26:53.848Z,71.38
2024-04-22T09:29:47.369Z,72.18
2024-04-22T09:32:38.199Z,72.88
2024-04-22T09:35:30.752Z,72.99
2024-04-22T09:38:28.418Z,73.26
2024-04-22T09:41:30.366Z,72.19
2024-04-22T09:44:23.166Z,72.51
2024-04-22T09:47:12.735Z,72.63
2024-04-22T09:50:06.041Z,72.36
2024-04-22T09:52:56.178Z,73.02
2024-04-22T09:55:49.476Z,72.96
2024-04-22T09:58:42.141Z,74.41
2024-04-22T10:01:33.785Z,74.92
2024-04-22T10:04:22.773Z,75.02
2024-04-22T10:07:14.227Z,76.00
2024-04-22T10:10:02.843Z,76.98
2024-04-22T10:12:54.452Z,77.61
2024-04-22T10:15:47.478Z,77.52
2024-04-22T10:18:38.525Z,78.97
2024-04-22T10:21:28.843Z,78.70
2024-04-22T10:24:30.213Z,79.90
2024-04-22T10:27:18.751Z,80.72
2024-04-22T10:30:11.469Z,80.82
2024-04-22T10:33:03.028Z,80.85
2024-04-22T10:35:54.464Z,80.64
2024-04-22T10:38:42.979Z,81.00
2024-04-22T10:41:34.306Z,80.90
2024-04-22T10:44:22.840Z,80.60
2024-04-22T10:47:14.923Z,81.34
2024-04-22T10:50:15.852Z,81.09
2024-04-22T10:53:08.727Z,81.48
2024-04-22T10:55:57.535Z,81.58
2024-04-22T10:58:48.934Z,81.25
2024-04-22T11:01:42.566Z,81.00
2024-04-22T11:04:34.187Z,81.23
2024-04-22T11:07:27.799Z,81.14
2024-04-22T11:10:28.062Z,81.14
2024-04-22T11:13:23.944Z,81.36
2024-04-22T11:16:17.419Z,80.61
2024-04-22T11:19:07.989Z,79.95
2024-04-22T11:21:59.252Z,79.17
2024-04-22T11:24:50.721Z,78.08
2024-04-22T11:27:41.996Z,77.93
2024-04-22T11:30:33.112Z,77.66
2024-04-22T11:33:25.013Z,78.12
2024-04-22T11:36:16.245Z,77.62
2024-04-22T11:39:13.135Z,77.10
2024-04-22T11:42:07.536Z,77.96
2024-04-22T11:44:59.164Z,77.51
2024-04-22T11:47:48.290Z,78.43
2024-04-22T11:50:40.700Z,78.59
2024-04-22T11:53:29.377Z,79.13
2024-04-22T11:56:21.326Z,79.68
2024-04-22T11:59:12.404Z,80.13
2024-04-22T12:02:03.767Z,79.47
2024-04-22T12:04:55.963Z,79.63
2024-04-22T12:07:47.692Z,78.74
2024-04-22T12:10:38.879Z,79.45
2024-04-22T12:13:29.821Z,79.60
2024-04-22T12:16:23.717Z,79.06
2024-04-22T12:19:12.307Z,79.14
2024-04-22T12:22:03.430Z,78.50
2024-04-22T12:24:51.910Z,78.75
2024-04-22T12:27:43.365Z,78.78
2024-04-22T12:30:31.858Z,76.84
2024-04-22T12:33:25.912Z,76.74
2024-04-22T12:36:14.431Z,76.65
2024-04-22T12:39:05.506Z,75.54
2024-04-22T12:41:54.373Z,75.38
2024-04-22T12:44:45.390Z,75.06
2024-04-22T12:47:52.421Z,74.26
2024-04-22T12:50:50.031Z,74.94
2024-04-22T12:53:41.536Z,74.70
2024-04-22T12:56:32.627Z,75.00
2024-04-22T12:59:23.682Z,75.61
2024-04-22T13:02:16.823Z,76.39
2024-04-22T13:05:09.185Z,76.28
2024-04-22T13:08:04.032Z,77.48
2024-04-22T13:10:55.483Z,77.82
2024-04-22T13:13:46.723Z,77.20
2024-04-22T13:16:37.892Z,75.97
2024-04-22T13:19:29.115Z,76.25
2024-04-22T13:22:17.901Z,74.28
2024-04-22T13:25:12.210Z,73.19
2024-04-22T13:28:00.856Z,72.50
2024-04-22T13:30:54.333Z,71.39
2024-04-22T13:33:44.537Z,72.05
2024-04-22T13:36:37.914Z,72.50
2024-04-22T13:39:26.431Z,72.11
2024-04-22T13:42:20.168Z,72.75
2024-04-22T13:45:08.840Z,73.31
2024-04-22T13:48:00.262Z,74.11
2024-04-22T13:50:48.902Z,74.31
2024-04-22T13:53:40.029Z,74.17
2024-04-22T13:56:28.476Z,74.61
2024-04-22T13:59:22.293Z,76.00
2024-04-22T14:02:10.851Z,76.38
2024-04-22T14:05:02.016Z,76.30
2024-04-22T14:07:50.604Z,76.88
2024-04-22T14:10:42.084Z,76.31
2024-04-22T14:13:30.646Z,76.37
2024-04-22T14:16:24.396Z,75.59
2024-04-22T14:19:12.905Z,75.13
2024-04-22T14:22:04.333Z,74.66
2024-04-22T14:24:52.897Z,74.67
2024-04-22T14:27:44.000Z,74.64
2024-04-22T14:30:32.595Z,74.17
2024-04-22T14:33:26.533Z,73.81
2024-04-22T14:36:15.058Z,74.00
2024-04-22T14:39:06.260Z,74.19
2024-04-22T14:41:54.785Z,74.81
2024-04-22T14:44:47.042Z,74.59
2024-04-22T14:47:36.950Z,76.56
2024-04-22T14:50:30.784Z,76.63
2024-04-22T14:53:19.306Z,77.50
2024-04-22T14:56:11.042Z,76.98
2024-04-22T14:59:00.874Z,77.55
2024-04-22T15:01:53.170Z,77.41
2024-04-22T15:04:44.649Z,78.15
2024-04-22T15:07:36.239Z,78.61
2024-04-22T15:10:27.458Z,78.61
2024-04-22T15:13:16.026Z,79.35
2024-04-22T15:16:07.695Z,79.19
2024-04-22T15:18:58.993Z,79.05
2024-04-22T15:21:47.510Z,79.15
2024-04-22T15:24:41.302Z,78.63
2024-04-22T15:27:29.772Z,77.80
2024-04-22T15:30:20.979Z,77.72
2024-04-22T15:33:11.009Z,77.67
2024-04-22T15:36:04.615Z,76.90
2024-04-22T15:38:53.213Z,76.58
2024-04-22T15:41:47.335Z,75.65
2024-04-22T15:44:35.826Z,74.62
2024-04-22T15:47:27.093Z,74.29
2024-04-22T15:50:15.740Z,74.46
2024-04-22T15:53:08.666Z,74.25
2024-04-22T15:55:57.757Z,74.10
2024-04-22T15:58:51.962Z,73.64
2024-04-22T16:01:41.047Z,73.29
2024-04-22T16:04:32.518Z,73.12
2024-04-22T16:07:22.929Z,73.82
2024-04-22T16:10:14.433Z,72.94
2024-04-22T16:13:03.023Z,73.36
2024-04-22T16:15:56.797Z,73.27
2024-04-22T16:18:48.404Z,72.56
2024-04-22T16:21:36.994Z,72.72
2024-04-22T16:24:28.485Z,73.52
2024-04-22T16:27:17.012Z,74.15
2024-04-22T16:30:09.457Z,73.99
2024-04-22T16:33:00.707Z,74.90
2024-04-22T16:35:52.201Z,75.59
2024-04-22T16:38:40.674Z,75.22
2024-04-22T16:41:31.888Z,76.42
2024-04-22T16:44:21.911Z,76.42
2024-04-22T16:47:13.243Z,76.92
2024-04-22T16:50:04.694Z,77.84
2024-04-22T16:52:55.889Z,78.67
2024-04-22T16:55:44.491Z,78.76
2024-04-22T16:58:35.644Z,80.04
2024-04-22T17:01:25.071Z,80.58
2024-04-22T17:04:16.457Z,80.57
2024-04-22T17:07:07.788Z,81.55
2024-04-22T17:09:58.907Z,81.70
2024-04-22T17:12:51.329Z,82.04
2024-04-22T17:15:40.098Z,82.55
2024-04-22T17:18:31.312Z,82.91
2024-04-22T17:21:19.914Z,82.12
2024-04-22T17:24:13.863Z,81.50
2024-04-22T17:27:02.372Z,81.81
2024-04-22T17:29:53.666Z,81.15
2024-04-22T17:32:42.930Z,80.80
2024-04-22T17:35:34.077Z,80.70
2024-04-22T17:38:25.715Z,80.79
2024-04-22T17:41:16.967Z,79.72
2024-04-22T17:44:09.117Z,79.89
2024-04-22T17:46:58.630Z,80.25
2024-04-22T17:49:50.203Z,80.62
2024-04-22T17:52:41.534Z,80.68
2024-04-22T17:55:33.814Z,80.60
2024-04-22T17:58:25.235Z,81.04
2024-04-22T18:01:17.531Z,80.98
2024-04-22T18:04:06.175Z,81.10
2024-04-22T18:06:57.505Z,81.48
2024-04-22T18:09:46.088Z,81.61
2024-04-22T18:12:38.183Z,81.59
2024-04-22T18:15:29.317Z,81.59
2024-04-22T18:18:20.490Z,81.85
2024-04-22T18:21:11.973Z,81.18
2024-04-22T18:24:03.339Z,81.41
2024-04-22T18:26:56.107Z,80.66
2024-04-22T18:29:44.533Z,80.63
2024-04-22T18:32:38.530Z,80.18
2024-04-22T18:35:27.065Z,80.23
2024-04-22T18:38:18.486Z,80.11
2024-04-22T18:41:10.238Z,80.06
2024-04-22T18:44:02.143Z,79.85
2024-04-22T18:46:50.684Z,79.19
2024-04-22T18:49:44.659Z,79.36
2024-04-22T18:52:33.236Z,80.31
2024-04-22T18:55:24.550Z,80.32
2024-04-22T18:58:13.026Z,80.21
2024-04-22T19:01:04.322Z,80.49
2024-04-22T19:03:52.878Z,80.86
2024-04-22T19:06:47.041Z,80.79
2024-04-22T19:09:38.276Z,81.10
2024-04-22T19:12:26.787Z,80.64
2024-04-22T19:15:18.033Z,81.22
2024-04-22T19:18:07.105Z,81.17
2024-04-22T19:20:58.233Z,80.84
2024-04-22T19:23:52.067Z,80.68
2024-04-22T19:26:40.488Z,80.53
2024-04-22T19:29:31.534Z,80.60
2024-04-22T19:32:19.977Z,81.05
2024-04-22T19:35:11.723Z,80.95
2024-04-22T19:38:02.878Z,80.77
2024-04-22T19:40:56.646Z,80.82
2024-04-22T19:43:45.204Z,80.73
2024-04-22T19:46:36.721Z,80.81
2024-04-22T19:49:25.359Z,80.30
2024-04-22T19:52:16.658Z,80.23
2024-04-22T19:55:05.866Z,80.55
2024-04-22T19:57:59.817Z,80.69
2024-04-22T20:00:48.485Z,80.42
2024-04-22T20:03:40.131Z,80.64
2024-04-22T20:06:28.835Z,80.33
2024-04-22T20:09:20.416Z,80.32
2024-04-22T20:12:09.007Z,80.64
2024-04-22T20:15:03.172Z,81.50
2024-04-22T20:18:04.969Z,81.35
2024-04-22T20:20:59.678Z,82.29
2024-04-22T20:23:48.266Z,81.66
2024-04-22T20:26:39.430Z,80.99
2024-04-22T20:29:27.897Z,81.38
2024-04-22T20:32:21.738Z,81.30
2024-04-22T20:35:12.967Z,80.14
2024-04-22T20:38:01.471Z,80.21
2024-04-22T20:41:00.461Z,79.95
2024-04-22T20:43:48.995Z,80.00
2024-04-22T20:46:43.195Z,79.68
2024-04-22T20:49:34.429Z,79.57
2024-04-22T20:52:25.556Z,79.70
2024-04-22T20:55:14.726Z,79.62
2024-04-22T20:58:05.856Z,79.51
2024-04-22T21:00:55.057Z,79.54
2024-04-22T21:03:46.167Z,79.06
2024-04-22T21:06:37.307Z,79.29
2024-04-22T21:09:28.422Z,79.60
2024-04-22T21:12:17.967Z,79.70
2024-04-22T21:15:10.041Z,79.93
2024-04-22T21:17:58.583Z,80.71
2024-04-22T21:20:50.061Z,80.55
2024-04-22T21:23:44.203Z,80.76
2024-04-22T21:26:32.934Z,80.68
2024-04-22T21:29:24.413Z,81.41
2024-04-22T21:32:12.774Z,81.16
2024-04-22T21:35:04.690Z,81.51
2024-04-22T21:37:53.449Z,81.93
2024-04-22T21:40:47.404Z,82.13
2024-04-22T21:43:37.605Z,82.55
2024-04-22T21:46:28.809Z,82.65
2024-04-22T21:49:17.243Z,82.29
2024-04-22T21:52:10.599Z,82.44
2024-04-22T21:54:59.590Z,81.85
2024-04-22T21:58:48.135Z,81.35
2024-04-22T22:02:36.767Z,80.94
2024-04-22T22:06:21.152Z,80.93
2024-04-22T22:09:29.025Z,81.45
2024-04-22T22:12:21.528Z,81.31
2024-04-22T22:15:14.810Z,81.11
2024-04-22T22:18:03.785Z,81.25
2024-04-22T22:20:55.191Z,81.75
2024-04-22T22:23:43.683Z,83.11
2024-04-22T22:26:37.511Z,83.75
2024-04-22T22:29:25.887Z,83.96
2024-04-22T22:32:17.045Z,84.59
2024-04-22T22:35:06.090Z,84.27
2024-04-22T22:37:57.681Z,83.75
2024-04-22T22:40:46.162Z,84.38
2024-04-22T22:43:39.896Z,83.60
2024-04-22T22:46:28.444Z,83.14
2024-04-22T22:49:19.690Z,83.04
2024-04-22T22:52:08.224Z,82.29
2024-04-22T22:54:59.564Z,82.88
2024-04-22T22:57:48.017Z,82.69
2024-04-22T23:00:41.984Z,82.38
2024-04-22T23:03:30.401Z,83.35
2024-04-22T23:06:21.462Z,83.31
2024-04-22T23:09:10.160Z,83.29
2024-04-22T23:12:01.555Z,83.21
2024-04-22T23:14:50.151Z,82.75
2024-04-22T23:17:43.904Z,83.23
2024-04-22T23:20:32.452Z,83.18
2024-04-22T23:23:23.504Z,83.53
2024-04-22T23:26:11.988Z,83.98
2024-04-22T23:29:03.135Z,83.94
2024-04-22T23:31:51.673Z,83.79
2024-04-22T23:34:45.443Z,84.69
2024-04-22T23:37:33.969Z,84.19
2024-04-22T23:40:25.219Z,84.18
2024-04-22T23:43:13.740Z,85.56
2024-04-22T23:46:05.142Z,85.37
2024-04-22T23:48:56.317Z,85.07
2024-04-22T23:51:47.615Z,85.39
2024-04-22T23:54:38.669Z,85.41
2024-04-22T23:57:27.069Z,84.91
